オウル の空港の天気 - METARとTAF

オウル空港 ( EFOU / OUL ) - フィンランド Oulunsalo
飛行場実況気象(Metar)
観測時間02/28 02:20 EET (02/28 00:20 UTC)
風向・風速南東 6m/s
視程10km以上
天気現象
全天の8割程度の雲 雲底高度 640m
全天を覆う雲 雲底高度 850m
気温-7℃
湿度93%
気圧999hPa
METAREFOU 280020Z AUTO 14012KT 9999 BKN021/// OVC028/// M07/M08 Q0999
過去の天気等 Google飛行場航空写真 Wunderground天気予報

過去48時間のMETAR

飛行場予報(TAF)
発表時間: 2/28 01:36 EET (2/27 23:36 UTC)
予報対象時間: 28日2時 EET ~ 1日2時 EET
風向・風速南東 5m/s
視程10km以上
全天の8割程度の雲 雲底高度 610m
28日2時 EET から 確率 40% で
視程3,000m
天気現象弱い氷霧雨
全天の8割程度の雲 雲底高度 300m
28日12時 EET ~ 28日14時 EET に徐々に
全天の8割程度の雲 雲底高度 370m
28日14時 EET ~ 28日23時 EET に一時的に
視程2,000m
天気現象弱い氷霧雨
全天の8割程度の雲 雲底高度 460m
28日23時 EET ~ 1日2時 EET に一時的に
視程3,000m
天気現象弱い氷霧雨
TAF EFOU 272336Z 2800/2824 13010KT 9999 BKN020
PROB40 2800/2806 3000 -FZDZ BKN010
BECMG 2810/2812 BKN012
TEMPO 2812/2821 2000 -FZDZ BKN015
TEMPO 2821/2824 3000 -FZDZ